Time;durP1;ratioP1;P1;durP2;ratioP2;P2;SDS_P1;SDS_P2;PMS_P1;PMS_P2;Temp;Humidity;BMP_temperature;BMP_pressure;BME280_temperature;BME280_humidity;BME280_pressure;Samples;Min_cycle;Max_cycle;Signal;HPM_P1;HPM_P2
2022/01/28 00:01:40;;;;;;;17.43;10.17;;;3.80;62.20;;;;;;5030141;28;20021;-82
2022/01/28 00:04:13;;;;;;;16.70;10.33;;;3.70;62.20;;;;;;5027820;28;20041;-80
2022/01/28 00:06:39;;;;;;;18.17;10.23;;;3.80;62.40;;;;;;5032785;28;20021;-82
2022/01/28 00:09:05;;;;;;;12.33;7.93;;;3.80;62.30;;;;;;5031330;28;20437;-82
2022/01/28 00:11:31;;;;;;;16.80;9.90;;;3.80;62.50;;;;;;5031714;28;20084;-81
2022/01/28 00:14:45;;;;;;;22.07;10.60;;;3.90;62.80;;;;;;5032317;28;20045;-82
2022/01/28 00:17:16;;;;;;;17.90;9.90;;;4.00;62.60;;;;;;5030230;28;20562;-81
2022/01/28 00:38:44;;;;;;;12.03;7.37;;;3.90;62.10;;;;;;5032617;28;20095;-82
2022/01/28 00:41:11;;;;;;;19.33;8.93;;;3.90;62.50;;;;;;5031021;28;20056;-82
2022/01/28 00:43:37;;;;;;;18.93;8.67;;;4.00;62.50;;;;;;5030848;28;20476;-82
2022/01/28 00:46:03;;;;;;;14.37;8.23;;;4.00;62.50;;;;;;5029321;28;20045;-82
2022/01/28 00:48:29;;;;;;;14.47;7.40;;;4.10;62.50;;;;;;5029647;28;20045;-82
2022/01/28 00:50:55;;;;;;;16.97;7.87;;;4.10;62.30;;;;;;5031002;28;20063;-82
2022/01/28 00:53:21;;;;;;;11.30;7.77;;;4.20;62.80;;;;;;5031000;28;20564;-82
2022/01/28 00:55:47;;;;;;;17.53;8.30;;;4.20;62.50;;;;;;5031134;28;20037;-82
2022/01/28 00:58:13;;;;;;;16.30;8.70;;;4.10;62.20;;;;;;5027369;28;20495;-82
2022/01/28 01:00:39;;;;;;;17.97;8.47;;;4.10;62.50;;;;;;5030960;28;20029;-82
2022/01/28 01:03:05;;;;;;;15.03;9.03;;;4.10;62.60;;;;;;5024450;28;20124;-82
2022/01/28 01:05:32;;;;;;;12.53;8.43;;;4.10;62.80;;;;;;5036091;28;20112;-82
2022/01/28 01:07:59;;;;;;;14.93;8.67;;;4.10;62.80;;;;;;5034672;28;20056;-82
2022/01/28 01:10:26;;;;;;;16.53;8.00;;;4.20;63.00;;;;;;5034842;28;20034;-82
2022/01/28 01:12:53;;;;;;;14.20;9.17;;;4.30;63.10;;;;;;5035769;28;20538;-82
2022/01/28 01:15:22;;;;;;;14.43;8.77;;;4.30;63.10;;;;;;5030918;28;20512;-82
2022/01/28 01:23:12;;;;;;;15.07;8.57;;;4.30;63.40;;;;;;5034329;28;20100;-82
2022/01/28 01:25:52;;;;;;;16.90;8.50;;;4.30;63.50;;;;;;5034154;28;20039;-82
2022/01/28 01:28:20;;;;;;;12.60;8.10;;;4.30;63.90;;;;;;5034032;28;20059;-82
2022/01/28 01:30:47;;;;;;;15.37;9.40;;;4.30;63.90;;;;;;5035565;28;20021;-82
2022/01/28 01:33:15;;;;;;;12.93;7.83;;;4.30;63.80;;;;;;5034440;28;20057;-82
2022/01/28 01:35:41;;;;;;;12.10;8.40;;;4.30;63.90;;;;;;5034684;28;20030;-82
2022/01/28 01:38:09;;;;;;;13.63;8.00;;;4.40;64.20;;;;;;5034320;28;20484;-82
2022/01/28 01:40:45;;;;;;;14.63;9.30;;;4.40;64.20;;;;;;5035723;28;20018;-82
2022/01/28 01:43:18;;;;;;;14.27;7.80;;;4.40;64.00;;;;;;5034503;28;20033;-82
2022/01/28 01:45:59;;;;;;;14.00;7.93;;;4.40;64.60;;;;;;5034388;28;20032;-82
2022/01/28 01:53:55;;;;;;;10.23;7.20;;;4.40;64.90;;;;;;5017677;28;20037;-82
2022/01/28 01:56:21;;;;;;;14.30;8.60;;;4.40;65.30;;;;;;5034404;28;20038;-82
2022/01/28 01:58:47;;;;;;;13.83;8.57;;;4.50;65.40;;;;;;5033037;28;20116;-82
2022/01/28 02:01:13;;;;;;;11.90;8.10;;;4.50;65.70;;;;;;5028503;28;20022;-82
2022/01/28 02:03:39;;;;;;;18.33;9.17;;;4.50;65.70;;;;;;5032525;28;20048;-82
2022/01/28 02:06:05;;;;;;;15.33;9.53;;;4.50;65.80;;;;;;5032463;28;20017;-82
2022/01/28 02:08:33;;;;;;;15.63;10.00;;;4.60;65.90;;;;;;5032859;28;20049;-82
2022/01/28 02:10:59;;;;;;;13.93;10.17;;;4.50;66.00;;;;;;5034203;28;20030;-82
2022/01/28 02:13:27;;;;;;;16.57;9.93;;;4.50;66.10;;;;;;5033356;28;20026;-82
2022/01/28 02:15:53;;;;;;;20.13;10.10;;;4.60;66.60;;;;;;5025520;28;20029;-82
2022/01/28 02:18:20;;;;;;;14.30;9.47;;;4.50;66.80;;;;;;5043047;28;20124;-82
2022/01/28 02:20:49;;;;;;;16.53;10.23;;;4.40;67.10;;;;;;5027488;28;20034;-82
2022/01/28 02:23:16;;;;;;;13.80;8.43;;;4.50;67.60;;;;;;5034479;28;20021;-82
2022/01/28 02:25:42;;;;;;;17.63;10.03;;;4.50;68.10;;;;;;5026389;28;20021;-82
2022/01/28 02:28:09;;;;;;;13.63;8.63;;;4.70;67.80;;;;;;5033493;28;20025;-82
2022/01/28 02:30:35;;;;;;;14.30;8.83;;;4.70;67.80;;;;;;5033414;28;20473;-82
2022/01/28 02:33:17;;;;;;;13.40;7.93;;;4.60;67.70;;;;;;5034557;28;20025;-82
2022/01/28 02:35:44;;;;;;;5.60;2.07;;;4.70;68.80;;;;;;5029054;28;20547;-82
2022/01/28 02:38:11;;;;;;;15.00;8.07;;;4.80;68.50;;;;;;5024634;28;20041;-82
2022/01/28 02:40:38;;;;;;;17.67;9.67;;;4.90;67.80;;;;;;5033017;28;20083;-82
2022/01/28 02:44:06;;;;;;;15.73;8.90;;;4.70;68.10;;;;;;5034714;28;20052;-82
2022/01/28 02:45:53;;;;;;;16.30;9.57;;;4.70;68.30;;;;;;5036584;28;20041;-82
2022/01/28 02:48:23;;;;;;;17.40;9.33;;;4.70;68.60;;;;;;5032888;28;20108;-82
2022/01/28 02:53:30;;;;;;;18.60;8.73;;;4.60;69.00;;;;;;5034401;28;20105;-82
2022/01/28 02:56:02;;;;;;;6.05;2.72;;;4.60;69.10;;;;;;5032022;28;20112;-82
2022/01/28 02:58:28;;;;;;;5.25;3.33;;;4.60;69.70;;;;;;5032545;28;20067;-82
2022/01/28 03:00:56;;;;;;;9.57;7.33;;;4.70;69.90;;;;;;5032830;28;20056;-82
2022/01/28 03:03:23;;;;;;;15.70;8.80;;;4.70;69.50;;;;;;5032675;28;20028;-82
2022/01/28 03:05:50;;;;;;;17.90;8.80;;;4.70;69.70;;;;;;5032790;28;20494;-82
2022/01/28 03:08:16;;;;;;;14.93;8.33;;;4.70;69.90;;;;;;5025166;28;20029;-82
2022/01/28 03:13:28;;;;;;;16.70;8.63;;;4.70;70.40;;;;;;5033196;28;20226;-83
2022/01/28 03:15:55;;;;;;;17.80;9.53;;;4.80;70.30;;;;;;5033923;28;20559;-82
2022/01/28 03:18:28;;;;;;;13.13;7.20;;;4.60;70.20;;;;;;5030859;28;20079;-82
2022/01/28 03:20:59;;;;;;;14.87;8.97;;;4.50;71.00;;;;;;5030543;28;20041;-83
2022/01/28 03:23:25;;;;;;;12.10;9.00;;;4.60;70.80;;;;;;5032147;28;20022;-82
2022/01/28 03:25:51;;;;;;;12.23;8.07;;;4.60;70.70;;;;;;5031976;28;20362;-83
2022/01/28 03:28:19;;;;;;;16.77;9.97;;;4.70;70.90;;;;;;5032933;28;20022;-82
2022/01/28 03:30:45;;;;;;;15.03;8.60;;;4.70;70.90;;;;;;5032279;28;20057;-83
2022/01/28 03:33:11;;;;;;;14.93;9.77;;;4.70;70.90;;;;;;5026524;28;20497;-83
2022/01/28 03:35:37;;;;;;;15.10;9.07;;;4.70;71.00;;;;;;5014138;28;20064;-83
2022/01/28 03:38:07;;;;;;;14.73;7.70;;;4.80;71.00;;;;;;5021751;28;20477;-82
2022/01/28 03:40:36;;;;;;;10.80;8.00;;;4.80;71.00;;;;;;5030237;28;20029;-82
2022/01/28 03:43:05;;;;;;;12.10;7.63;;;4.80;71.00;;;;;;5025869;28;20694;-82
2022/01/28 03:45:31;;;;;;;12.27;7.00;;;4.80;71.10;;;;;;5022872;28;20028;-83
2022/01/28 03:47:57;;;;;;;6.60;4.43;;;4.90;71.20;;;;;;5031663;28;20484;-83
2022/01/28 03:50:23;;;;;;;4.07;2.40;;;5.00;71.00;;;;;;5032977;28;20022;-82
2022/01/28 03:52:48;;;;;;;4.43;3.07;;;5.00;70.90;;;;;;5031389;28;20022;-83
2022/01/28 03:55:15;;;;;;;4.03;2.00;;;5.10;70.70;;;;;;5032081;28;20495;-83
2022/01/28 03:57:41;;;;;;;2.23;0.87;;;5.10;70.60;;;;;;5022015;28;20096;-83
2022/01/28 04:00:07;;;;;;;1.90;1.00;;;5.20;70.40;;;;;;5029665;28;20119;-83
2022/01/28 04:02:37;;;;;;;2.67;1.00;;;5.20;70.00;;;;;;5025648;28;20040;-83
2022/01/28 04:13:22;;;;;;;4.53;0.60;;;5.40;69.00;;;;;;5025840;28;20100;-82
2022/01/28 04:15:53;;;;;;;2.03;0.70;;;5.40;68.80;;;;;;5024108;28;20121;-83
2022/01/28 04:18:19;;;;;;;2.00;0.50;;;5.50;68.40;;;;;;5024053;28;20083;-83
2022/01/28 04:20:45;;;;;;;1.83;0.47;;;5.50;67.70;;;;;;5034054;28;20080;-82
2022/01/28 04:23:10;;;;;;;0.50;0.40;;;5.60;67.00;;;;;;5039057;28;20036;-83
2022/01/28 04:25:36;;;;;;;2.17;0.40;;;5.70;65.90;;;;;;5025407;28;20761;-83
2022/01/28 04:28:02;;;;;;;3.23;0.50;;;5.70;65.20;;;;;;5021387;28;20120;-83
2022/01/28 04:30:27;;;;;;;2.03;0.60;;;5.70;65.00;;;;;;5031050;28;20018;-83
2022/01/28 04:32:53;;;;;;;4.40;0.57;;;5.70;64.80;;;;;;5031233;28;20030;-82
2022/01/28 04:35:19;;;;;;;2.27;0.50;;;5.70;64.20;;;;;;5030842;28;20017;-82
2022/01/28 04:40:33;;;;;;;3.37;0.70;;;5.90;62.60;;;;;;5031949;28;20033;-82
2022/01/28 04:43:11;;;;;;;3.00;0.93;;;5.90;62.30;;;;;;5022631;28;20121;-83
2022/01/28 04:45:49;;;;;;;2.13;0.60;;;5.90;62.10;;;;;;5029643;28;20025;-82
2022/01/28 04:51:01;;;;;;;3.40;0.80;;;5.90;61.50;;;;;;5020844;28;20493;-82
2022/01/28 04:56:22;;;;;;;1.53;0.47;;;5.90;61.20;;;;;;5031180;28;20026;-83
2022/01/28 05:01:40;;;;;;;2.47;0.60;;;6.00;60.10;;;;;;5034458;28;20052;-83
2022/01/28 05:07:06;;;;;;;4.40;1.27;;;6.10;60.10;;;;;;5031667;28;20365;-83
2022/01/28 05:28:06;;;;;;;5.27;2.13;;;5.80;62.10;;;;;;5025139;28;20454;-83
2022/01/28 05:30:32;;;;;;;4.30;2.03;;;5.80;62.20;;;;;;5014647;28;20036;-83
2022/01/28 05:32:57;;;;;;;6.17;2.27;;;5.70;62.20;;;;;;5026812;28;20473;-83
2022/01/28 05:35:23;;;;;;;5.53;1.77;;;5.70;62.60;;;;;;5013299;28;20421;-81
2022/01/28 05:37:49;;;;;;;2.57;1.63;;;5.60;62.80;;;;;;5020338;28;20030;-82
2022/01/28 05:40:15;;;;;;;3.07;1.70;;;5.60;63.10;;;;;;5026698;28;20025;-82
2022/01/28 05:42:40;;;;;;;4.10;1.40;;;5.60;63.20;;;;;;5027555;28;20041;-82
2022/01/28 05:45:07;;;;;;;3.80;1.03;;;5.60;63.40;;;;;;5016406;28;20045;-83
2022/01/28 05:47:35;;;;;;;9.20;3.90;;;5.60;63.50;;;;;;5027262;28;20077;-83
2022/01/28 05:50:02;;;;;;;10.37;2.63;;;5.60;63.60;;;;;;5029864;28;20083;-83
2022/01/28 05:52:30;;;;;;;2.10;1.17;;;5.60;63.80;;;;;;5030120;28;20034;-82
2022/01/28 05:54:56;;;;;;;3.13;1.63;;;5.60;63.90;;;;;;5028399;28;20026;-83
2022/01/28 05:57:21;;;;;;;6.23;2.53;;;5.60;63.90;;;;;;5026882;28;20026;-83
2022/01/28 05:59:47;;;;;;;13.20;4.30;;;5.60;64.00;;;;;;5025159;28;20089;-83
2022/01/28 06:02:13;;;;;;;15.67;5.30;;;5.50;64.20;;;;;;5022321;28;20038;-83
2022/01/28 06:04:39;;;;;;;14.23;4.63;;;5.50;64.50;;;;;;5025648;28;20041;-83
2022/01/28 06:07:05;;;;;;;5.97;2.40;;;5.50;64.70;;;;;;5032202;28;20120;-83
2022/01/28 06:09:30;;;;;;;3.70;0.97;;;5.50;64.70;;;;;;5028392;28;20117;-82
2022/01/28 06:11:56;;;;;;;1.70;0.77;;;5.60;64.20;;;;;;5026154;28;20063;-83
2022/01/28 06:14:22;;;;;;;5.93;0.80;;;5.70;63.30;;;;;;5028765;28;20030;-83
2022/01/28 06:16:47;;;;;;;7.80;1.33;;;5.80;62.60;;;;;;5029830;28;20400;-83
2022/01/28 06:19:13;;;;;;;7.73;1.80;;;5.80;62.30;;;;;;5029883;28;20108;-83
2022/01/28 06:21:39;;;;;;;8.10;1.20;;;5.80;62.30;;;;;;5025222;28;20484;-83
2022/01/28 06:24:05;;;;;;;19.27;7.20;;;5.70;62.20;;;;;;5027164;28;20025;-83
2022/01/28 06:26:31;;;;;;;13.37;5.10;;;5.70;62.40;;;;;;5020057;28;20476;-84
2022/01/28 06:28:56;;;;;;;7.20;2.13;;;5.70;62.90;;;;;;5026259;28;20032;-82
2022/01/28 06:31:22;;;;;;;4.23;1.87;;;5.70;63.00;;;;;;5031123;28;20476;-82
2022/01/28 06:33:48;;;;;;;7.07;3.33;;;5.60;62.00;;;;;;5024456;28;20033;-81
2022/01/28 06:36:15;;;;;;;9.17;4.10;;;5.60;61.90;;;;;;5028397;28;20113;-82
2022/01/28 06:38:40;;;;;;;5.77;2.87;;;5.70;61.80;;;;;;5026174;28;20044;-82
2022/01/28 06:41:06;;;;;;;7.23;3.63;;;5.70;61.90;;;;;;5017006;28;20399;-82
2022/01/28 06:43:32;;;;;;;10.00;3.30;;;5.80;62.00;;;;;;5029197;28;20105;-82
2022/01/28 06:45:57;;;;;;;3.00;1.10;;;5.80;61.90;;;;;;5017686;28;20092;-82
2022/01/28 06:48:23;;;;;;;2.40;1.07;;;5.80;61.00;;;;;;5018197;28;20030;-82
2022/01/28 06:50:49;;;;;;;5.00;2.30;;;5.80;60.50;;;;;;5021410;28;20060;-82
2022/01/28 06:53:15;;;;;;;6.37;1.93;;;5.80;60.10;;;;;;5027816;28;20036;-82
2022/01/28 06:55:42;;;;;;;8.60;4.23;;;5.90;60.00;;;;;;5024985;28;20036;-82
2022/01/28 06:58:09;;;;;;;2.33;1.23;;;6.00;59.80;;;;;;5021010;28;20485;-82
2022/01/28 07:00:39;;;;;;;1.97;0.70;;;6.00;58.90;;;;;;5024016;28;20040;-82
2022/01/28 07:03:07;;;;;;;2.63;0.87;;;5.90;58.30;;;;;;5020420;28;20133;-82
2022/01/28 07:05:32;;;;;;;1.40;0.57;;;6.00;58.10;;;;;;5019815;28;20048;-82
2022/01/28 07:07:58;;;;;;;2.90;0.50;;;6.00;57.50;;;;;;5023012;28;20021;-82
2022/01/28 07:10:24;;;;;;;0.70;0.30;;;6.00;56.50;;;;;;5031037;28;20040;-82
2022/01/28 07:12:53;;;;;;;32.73;8.43;;;6.00;55.80;;;;;;5017137;28;20033;-82
2022/01/28 07:15:19;;;;;;;6.17;2.27;;;6.10;55.50;;;;;;5023694;28;20556;-83
2022/01/28 07:17:44;;;;;;;7.67;2.10;;;6.10;55.50;;;;;;5029913;28;20108;-82
2022/01/28 07:20:10;;;;;;;5.90;1.70;;;6.20;55.50;;;;;;5022742;28;20032;-82
2022/01/28 07:22:36;;;;;;;5.73;1.93;;;6.20;55.60;;;;;;5026228;28;20033;-83
2022/01/28 07:25:02;;;;;;;4.20;1.97;;;6.40;55.90;;;;;;5023319;28;20026;-83
2022/01/28 07:27:28;;;;;;;3.57;1.27;;;6.40;55.30;;;;;;5023383;28;20064;-83
2022/01/28 07:29:53;;;;;;;2.77;0.93;;;6.40;55.30;;;;;;5021034;28;20025;-82
2022/01/28 07:32:19;;;;;;;1.40;0.70;;;6.30;55.30;;;;;;5020266;28;20033;-82
2022/01/28 07:34:46;;;;;;;5.17;1.10;;;6.30;55.20;;;;;;5023489;28;20110;-82
2022/01/28 07:37:12;;;;;;;1.73;0.53;;;6.30;55.30;;;;;;5025966;28;20036;-82
2022/01/28 07:39:38;;;;;;;1.30;0.47;;;6.30;55.30;;;;;;5031288;28;20029;-82
2022/01/28 07:42:04;;;;;;;1.57;0.50;;;6.30;55.50;;;;;;5022001;28;20042;-82
2022/01/28 07:44:29;;;;;;;4.83;0.93;;;6.30;55.50;;;;;;5029377;28;20059;-82
2022/01/28 07:46:55;;;;;;;1.20;0.43;;;6.30;55.70;;;;;;5029062;28;20072;-82
2022/01/28 07:49:21;;;;;;;2.10;0.50;;;6.40;55.60;;;;;;5022762;28;20049;-82
2022/01/28 07:51:48;;;;;;;2.03;0.43;;;6.40;55.60;;;;;;5017559;28;20385;-82
2022/01/28 07:54:14;;;;;;;3.37;0.60;;;6.40;55.70;;;;;;5027457;28;20029;-82
2022/01/28 07:56:40;;;;;;;3.87;1.17;;;6.40;55.70;;;;;;5027614;28;20069;-82
2022/01/28 07:59:06;;;;;;;2.37;0.50;;;6.40;55.90;;;;;;5022246;28;20064;-82
2022/01/28 08:01:31;;;;;;;4.27;1.20;;;6.30;56.00;;;;;;5017160;28;20037;-82
2022/01/28 08:03:57;;;;;;;2.70;0.87;;;6.40;56.40;;;;;;5020077;28;20056;-82
2022/01/28 08:06:25;;;;;;;8.57;4.87;;;6.30;56.50;;;;;;5022679;28;20072;-82
2022/01/28 08:08:52;;;;;;;6.77;1.67;;;6.30;56.70;;;;;;5028901;28;20033;-82
2022/01/28 08:11:18;;;;;;;4.60;1.57;;;6.30;57.50;;;;;;5027016;28;20021;-82
2022/01/28 08:13:43;;;;;;;2.07;1.17;;;6.30;57.20;;;;;;5023404;28;20083;-82
2022/01/28 08:16:09;;;;;;;5.47;1.17;;;6.30;57.50;;;;;;5024928;28;20036;-83
2022/01/28 08:18:35;;;;;;;4.50;1.40;;;6.30;57.50;;;;;;5021933;28;20048;-82
2022/01/28 08:21:00;;;;;;;3.47;1.13;;;6.30;57.60;;;;;;5022403;28;20096;-82
2022/01/28 08:23:26;;;;;;;5.13;1.80;;;6.40;57.70;;;;;;5027712;28;20100;-82
2022/01/28 08:25:54;;;;;;;8.43;1.37;;;6.30;58.00;;;;;;5022023;28;20021;-82
2022/01/28 08:28:20;;;;;;;1.37;0.80;;;6.30;58.20;;;;;;5015705;28;20036;-82
2022/01/28 08:30:46;;;;;;;2.17;1.27;;;6.30;58.30;;;;;;5024429;28;20041;-82
2022/01/28 08:33:12;;;;;;;5.03;1.50;;;6.30;58.50;;;;;;5025533;28;20044;-82
2022/01/28 08:35:39;;;;;;;4.10;1.20;;;6.30;58.50;;;;;;5026345;28;20967;-82
2022/01/28 08:38:14;;;;;;;2.97;0.97;;;6.30;58.40;;;;;;5016981;28;20029;-82
2022/01/28 08:40:40;;;;;;;2.47;1.30;;;6.30;58.50;;;;;;5027173;28;20555;-82
2022/01/28 08:43:06;;;;;;;6.00;1.63;;;6.30;58.50;;;;;;5025724;28;20029;-82
2022/01/28 08:45:32;;;;;;;5.57;1.70;;;6.30;58.60;;;;;;5021854;28;20076;-82
2022/01/28 08:47:58;;;;;;;3.33;1.87;;;6.30;58.80;;;;;;5022047;28;20516;-82
2022/01/28 08:50:24;;;;;;;5.47;2.17;;;6.40;59.00;;;;;;5017683;28;20037;-82
2022/01/28 08:52:49;;;;;;;10.43;2.53;;;6.40;59.00;;;;;;5028376;28;20465;-82
2022/01/28 08:55:15;;;;;;;4.70;1.60;;;6.40;59.20;;;;;;5026014;28;20037;-82
2022/01/28 08:57:44;;;;;;;3.87;1.27;;;6.30;59.40;;;;;;5023227;28;20036;-83
2022/01/28 09:00:21;;;;;;;4.27;1.60;;;6.40;59.60;;;;;;5016989;28;20032;-82
2022/01/28 09:02:48;;;;;;;2.63;1.30;;;6.40;59.70;;;;;;5016694;28;20148;-83
2022/01/28 09:05:14;;;;;;;4.00;1.20;;;6.40;59.40;;;;;;5027620;28;20025;-82
2022/01/28 09:07:40;;;;;;;10.60;1.23;;;6.40;59.40;;;;;;5028118;28;20025;-82
2022/01/28 09:10:18;;;;;;;1.83;0.90;;;6.60;59.50;;;;;;5028390;28;20523;-82
2022/01/28 09:15:46;;;;;;;3.27;1.40;;;6.70;59.00;;;;;;5048967;28;20040;-82
2022/01/28 09:18:13;;;;;;;4.73;2.20;;;6.70;58.90;;;;;;5024080;28;20049;-82
2022/01/28 09:20:39;;;;;;;6.73;2.63;;;6.70;59.00;;;;;;5024961;28;20056;-82
2022/01/28 09:23:05;;;;;;;8.73;4.23;;;6.70;59.30;;;;;;5017073;28;20037;-82
2022/01/28 09:25:31;;;;;;;10.30;4.30;;;6.70;59.50;;;;;;5025545;28;20109;-82
2022/01/28 09:27:57;;;;;;;7.20;3.20;;;6.70;59.60;;;;;;5026316;28;20476;-83
2022/01/28 09:30:23;;;;;;;11.23;3.23;;;6.70;59.60;;;;;;5028136;28;20030;-82
2022/01/28 09:32:49;;;;;;;8.93;3.23;;;6.60;59.80;;;;;;5026653;28;20128;-82
2022/01/28 09:35:15;;;;;;;4.00;1.60;;;6.60;59.70;;;;;;5026870;28;20061;-82
2022/01/28 09:37:41;;;;;;;5.40;1.10;;;6.50;59.60;;;;;;5027377;28;20026;-82
2022/01/28 09:40:08;;;;;;;1.27;0.50;;;6.50;59.30;;;;;;5024220;28;20040;-82
2022/01/28 09:42:38;;;;;;;3.27;1.70;;;6.60;59.20;;;;;;5028087;28;20041;-82
2022/01/28 09:45:07;;;;;;;3.40;1.30;;;6.70;58.90;;;;;;5028418;28;20029;-83
2022/01/28 09:47:34;;;;;;;1.83;0.50;;;7.00;59.00;;;;;;5026428;28;20033;-83
2022/01/28 09:50:01;;;;;;;3.70;0.67;;;7.20;58.20;;;;;;5017324;28;20061;-83
2022/01/28 09:52:27;;;;;;;2.83;1.27;;;7.50;57.90;;;;;;5022281;28;20038;-83
2022/01/28 09:54:52;;;;;;;2.23;0.73;;;7.80;57.50;;;;;;5024979;28;20095;-83
2022/01/28 09:57:20;;;;;;;3.33;1.67;;;7.90;56.90;;;;;;5029088;28;20042;-82
2022/01/28 09:59:47;;;;;;;4.30;1.20;;;7.80;56.50;;;;;;5031786;28;20038;-83
2022/01/28 10:02:13;;;;;;;2.30;0.87;;;7.70;56.10;;;;;;5030214;28;20041;-83
2022/01/28 10:04:39;;;;;;;2.40;0.70;;;7.60;56.00;;;;;;5031397;28;20057;-83
2022/01/28 10:07:13;;;;;;;1.33;0.70;;;7.60;56.10;;;;;;5025166;28;20049;-83
2022/01/28 10:10:01;;;;;;;1.67;0.97;;;7.50;55.60;;;;;;5027612;28;20034;-83
2022/01/28 10:12:38;;;;;;;1.77;0.60;;;7.50;55.00;;;;;;5028370;28;20484;-83
2022/01/28 10:15:17;;;;;;;1.80;0.50;;;7.50;54.70;;;;;;5030680;28;20033;-83
2022/01/28 10:17:58;;;;;;;2.30;0.50;;;7.60;55.00;;;;;;5021931;28;20053;-83
2022/01/28 10:20:26;;;;;;;0.67;0.40;;;8.00;55.00;;;;;;5030687;28;20064;-83
2022/01/28 10:23:01;;;;;;;1.20;0.40;;;8.20;54.80;;;;;;5021895;28;20036;-83
2022/01/28 10:25:34;;;;;;;3.63;0.63;;;8.20;54.50;;;;;;5022994;28;20030;-83
2022/01/28 10:28:09;;;;;;;1.03;0.50;;;8.10;54.70;;;;;;5036701;28;20078;-83
2022/01/28 10:30:40;;;;;;;1.80;0.70;;;8.10;55.00;;;;;;5023263;28;20045;-83
2022/01/28 10:33:23;;;;;;;1.40;0.50;;;7.90;55.40;;;;;;5024942;28;20021;-83
2022/01/28 10:36:02;;;;;;;2.37;0.93;;;7.60;55.70;;;;;;5023633;28;20022;-83
2022/01/28 10:38:35;;;;;;;2.33;0.70;;;7.30;56.30;;;;;;5022116;28;20025;-83
2022/01/28 10:41:12;;;;;;;;;;;7.20;56.90;;;;;;5020426;28;20479;-83
2022/01/28 10:43:43;;;;;;;3.50;0.50;;;7.00;57.00;;;;;;5026434;28;20007;-83
2022/01/28 10:46:08;;;;;;;1.70;0.70;;;6.90;57.70;;;;;;5030527;28;20065;-83
2022/01/28 10:48:51;;;;;;;3.03;1.17;;;6.80;57.90;;;;;;5019352;28;20523;-83
2022/01/28 10:51:22;;;;;;;2.40;1.42;;;6.70;58.90;;;;;;5024360;28;20488;-83
2022/01/28 10:54:07;;;;;;;7.83;1.50;;;6.90;59.30;;;;;;5020781;28;20041;-83
2022/01/28 10:56:49;;;;;;;4.43;1.50;;;7.10;59.00;;;;;;5024444;28;20037;-83
2022/01/28 10:59:18;;;;;;;1.58;0.80;;;7.20;58.80;;;;;;5029602;28;20028;-83
2022/01/28 11:01:45;;;;;;;3.00;1.63;;;7.30;59.00;;;;;;5024267;28;20505;-83
2022/01/28 11:04:13;;;;;;;3.10;1.37;;;7.50;58.90;;;;;;5028876;28;20029;-83
2022/01/28 11:06:40;;;;;;;2.23;0.90;;;7.70;58.30;;;;;;5024956;28;20029;-83
2022/01/28 11:09:08;;;;;;;1.00;0.70;;;7.70;58.30;;;;;;5030922;28;20021;-83
2022/01/28 11:11:34;;;;;;;1.83;0.83;;;7.80;58.30;;;;;;5031202;28;20041;-83
2022/01/28 11:14:00;;;;;;;2.53;0.73;;;7.80;57.60;;;;;;5030777;28;20033;-83
2022/01/28 11:16:26;;;;;;;2.07;0.90;;;7.70;57.90;;;;;;5025740;28;20040;-83
2022/01/28 11:18:54;;;;;;;1.77;0.70;;;7.70;58.50;;;;;;5032776;28;20041;-83
2022/01/28 11:21:30;;;;;;;1.17;0.50;;;7.80;57.50;;;;;;5031425;28;20038;-83
2022/01/28 11:24:06;;;;;;;0.87;0.40;;;8.00;57.50;;;;;;5024940;28;20018;-82
2022/01/28 11:27:02;;;;;;;2.73;0.77;;;8.10;56.80;;;;;;5034072;28;20022;-82
2022/01/28 11:29:28;;;;;;;2.83;0.60;;;8.20;56.40;;;;;;5033827;28;20057;-83
2022/01/28 11:31:57;;;;;;;2.13;0.70;;;8.30;56.20;;;;;;5032832;28;20021;-82
2022/01/28 11:34:30;;;;;;;2.70;0.60;;;8.30;56.10;;;;;;5020582;28;20026;-82
2022/01/28 11:37:17;;;;;;;2.63;0.57;;;8.30;56.00;;;;;;5029447;28;20045;-83
2022/01/28 11:39:46;;;;;;;1.50;0.60;;;8.50;56.00;;;;;;5031052;28;20022;-84
2022/01/28 11:42:18;;;;;;;3.37;0.50;;;8.60;55.60;;;;;;5031761;28;20029;-85
2022/01/28 11:44:50;;;;;;;2.10;0.53;;;8.70;55.40;;;;;;5032943;28;20374;-84
2022/01/28 11:47:27;;;;;;;1.20;0.33;;;8.60;55.50;;;;;;5028720;28;20288;-85
2022/01/28 11:50:06;;;;;;;1.37;0.70;;;8.60;55.30;;;;;;5025235;28;20025;-84
2022/01/28 11:52:37;;;;;;;1.40;0.57;;;8.40;55.00;;;;;;5031494;28;20033;-84
2022/01/28 11:55:15;;;;;;;2.00;0.57;;;8.10;55.50;;;;;;5033144;28;20029;-84
2022/01/28 11:57:55;;;;;;;1.00;0.50;;;8.00;55.80;;;;;;5032364;28;20025;-84
2022/01/28 12:00:43;;;;;;;3.30;0.87;;;7.90;56.00;;;;;;5033133;28;20088;-84
2022/01/28 12:03:17;;;;;;;2.10;0.70;;;7.90;56.20;;;;;;5031101;28;20030;-85
2022/01/28 12:05:43;;;;;;;4.23;0.57;;;7.90;56.30;;;;;;5012443;28;20022;-85
2022/01/28 12:08:10;;;;;;;1.33;0.60;;;7.90;55.90;;;;;;5015580;28;20025;-84
2022/01/28 12:10:41;;;;;;;1.67;0.43;;;7.80;55.90;;;;;;5030998;28;20018;-84
2022/01/28 12:13:12;;;;;;;2.87;0.80;;;7.90;56.30;;;;;;5032033;28;20029;-84
2022/01/28 12:16:09;;;;;;;2.93;1.40;;;7.90;56.20;;;;;;5031643;28;20388;-84
2022/01/28 12:19:10;;;;;;;3.17;1.30;;;8.30;56.30;;;;;;5033076;28;20051;-83
2022/01/28 12:21:37;;;;;;;4.60;1.83;;;8.40;55.50;;;;;;5023474;28;20037;-83
2022/01/28 12:24:22;;;;;;;3.67;1.90;;;8.30;55.70;;;;;;5031192;28;20028;-84
2022/01/28 12:27:08;;;;;;;0.90;0.40;;;8.30;55.60;;;;;;5031031;28;20120;-84
2022/01/28 12:29:44;;;;;;;1.27;0.50;;;8.20;54.80;;;;;;5031193;28;20060;-83
2022/01/28 12:32:11;;;;;;;2.30;0.63;;;8.40;54.80;;;;;;5031856;28;20479;-83
2022/01/28 12:34:44;;;;;;;1.90;1.40;;;8.40;54.80;;;;;;5031435;28;20051;-83
2022/01/28 12:37:10;;;;;;;1.40;0.93;;;8.40;54.50;;;;;;5013101;28;20507;-83
2022/01/28 12:39:39;;;;;;;2.40;0.57;;;8.30;54.20;;;;;;5019307;28;20033;-83
2022/01/28 12:42:22;;;;;;;1.83;1.03;;;8.20;54.10;;;;;;5031336;28;20444;-83
2022/01/28 12:44:58;;;;;;;4.85;1.58;;;8.10;54.10;;;;;;5032742;28;20427;-83
2022/01/28 12:47:26;;;;;;;20.57;16.50;;;8.00;54.50;;;;;;5030689;28;20041;-83
2022/01/28 12:49:56;;;;;;;2.67;1.33;;;8.00;54.70;;;;;;5031159;28;20048;-83
2022/01/28 12:52:23;;;;;;;3.87;1.33;;;7.90;54.40;;;;;;5031439;28;20022;-83
2022/01/28 12:54:49;;;;;;;2.97;1.23;;;8.10;54.80;;;;;;5030773;28;20104;-83
2022/01/28 12:57:17;;;;;;;2.23;1.50;;;8.10;54.40;;;;;;5013037;28;20061;-83
2022/01/28 12:59:47;;;;;;;4.00;1.23;;;8.00;54.30;;;;;;5031117;28;20370;-83
2022/01/28 13:02:14;;;;;;;8.07;5.13;;;8.00;54.50;;;;;;5032908;28;20029;-83
2022/01/28 13:09:53;;;;;;;2.73;1.43;;;8.50;52.80;;;;;;5037224;28;20029;-83
2022/01/28 13:12:24;;;;;;;2.07;0.80;;;8.60;52.20;;;;;;5036801;28;20472;-83
2022/01/28 13:14:50;;;;;;;1.67;0.87;;;8.70;51.60;;;;;;5055374;28;20120;-83
2022/01/28 13:17:21;;;;;;;2.90;0.80;;;8.60;51.80;;;;;;5056607;28;20059;-83
2022/01/28 13:19:59;;;;;;;2.00;0.60;;;8.50;52.20;;;;;;5039455;28;20435;-84
2022/01/28 13:22:30;;;;;;;4.20;1.17;;;8.70;53.00;;;;;;5035130;28;20480;-84
2022/01/28 13:24:57;;;;;;;4.00;0.93;;;8.80;52.10;;;;;;5035173;28;20029;-83
2022/01/28 13:27:39;;;;;;;2.37;0.80;;;8.60;52.30;;;;;;5036198;28;20083;-83
2022/01/28 13:30:14;;;;;;;5.37;2.03;;;8.50;52.40;;;;;;5035063;28;20029;-83
2022/01/28 13:32:43;;;;;;;8.73;3.37;;;8.30;52.70;;;;;;5034871;28;20477;-83
2022/01/28 13:35:21;;;;;;;5.63;1.83;;;8.10;53.10;;;;;;5034759;28;20037;-83
2022/01/28 13:37:53;;;;;;;2.37;0.50;;;8.00;53.40;;;;;;5034849;28;20038;-83
2022/01/28 13:40:23;;;;;;;4.83;1.50;;;8.00;53.20;;;;;;5034825;28;20029;-84
2022/01/28 13:43:14;;;;;;;5.30;1.47;;;7.80;53.60;;;;;;5034796;28;20032;-83
2022/01/28 13:45:42;;;;;;;8.33;1.63;;;7.80;53.30;;;;;;5035919;28;20030;-83
2022/01/28 13:48:15;;;;;;;4.67;3.67;;;8.00;53.50;;;;;;5034810;28;20103;-83
2022/01/28 13:50:47;;;;;;;4.17;1.30;;;8.20;53.30;;;;;;5032423;28;20030;-83
2022/01/28 13:53:34;;;;;;;3.33;1.03;;;8.20;53.20;;;;;;5035905;28;20480;-83
2022/01/28 13:55:59;;;;;;;5.13;3.67;;;8.20;53.20;;;;;;5035962;28;20025;-83
2022/01/28 13:58:26;;;;;;;0.90;0.60;;;8.10;52.00;;;;;;5035806;28;20434;-83
2022/01/28 14:00:53;;;;;;;1.00;0.60;;;8.10;51.10;;;;;;5026519;28;20430;-83
2022/01/28 14:03:27;;;;;;;3.73;1.27;;;8.00;50.50;;;;;;5032989;28;20029;-83
2022/01/28 14:06:00;;;;;;;3.20;1.57;;;8.50;50.60;;;;;;5035698;28;20037;-83
2022/01/28 14:08:44;;;;;;;3.97;2.00;;;9.00;50.20;;;;;;5034369;28;20447;-83
2022/01/28 14:11:34;;;;;;;3.23;1.50;;;8.90;49.00;;;;;;5033265;28;20492;-83
2022/01/28 14:14:19;;;;;;;5.30;2.10;;;8.60;49.40;;;;;;5021319;28;20026;-83
2022/01/28 14:16:54;;;;;;;1.70;0.67;;;8.50;49.10;;;;;;5029337;28;20079;-83
2022/01/28 14:19:21;;;;;;;3.13;0.67;;;8.30;48.10;;;;;;5033911;28;20090;-83
2022/01/28 14:21:47;;;;;;;3.47;1.93;;;8.10;47.90;;;;;;5035152;28;20033;-83
2022/01/28 14:24:18;;;;;;;2.73;1.33;;;8.00;48.00;;;;;;5034036;28;20061;-83
2022/01/28 14:26:54;;;;;;;7.27;4.00;;;8.00;48.50;;;;;;5034101;28;20029;-83
2022/01/28 14:31:46;;;;;;;3.33;2.00;;;8.10;48.20;;;;;;5034522;28;20040;-83
2022/01/28 14:34:11;;;;;;;6.13;3.97;;;8.10;48.20;;;;;;5034162;28;20029;-83